sensor_id;sensor_type;location;lat;lon;timestamp;P1;durP1;ratioP1;P2;durP2;ratioP2
55312;SDS011;46892;45.668;11.756;2024-03-06T00:01:44;6.33;;;2.50;;
55312;SDS011;46892;45.668;11.756;2024-03-06T00:04:10;5.53;;;2.40;;
55312;SDS011;46892;45.668;11.756;2024-03-06T00:06:35;5.13;;;2.07;;
55312;SDS011;46892;45.668;11.756;2024-03-06T00:09:01;6.57;;;1.90;;
55312;SDS011;46892;45.668;11.756;2024-03-06T00:11:28;5.17;;;2.33;;
55312;SDS011;46892;45.668;11.756;2024-03-06T00:13:54;5.93;;;2.20;;
55312;SDS011;46892;45.668;11.756;2024-03-06T00:16:20;4.17;;;2.00;;
55312;SDS011;46892;45.668;11.756;2024-03-06T00:18:46;4.57;;;2.03;;
55312;SDS011;46892;45.668;11.756;2024-03-06T00:21:12;5.87;;;2.23;;
55312;SDS011;46892;45.668;11.756;2024-03-06T00:23:38;6.90;;;1.87;;
55312;SDS011;46892;45.668;11.756;2024-03-06T00:26:04;4.77;;;1.80;;
55312;SDS011;46892;45.668;11.756;2024-03-06T00:28:29;4.73;;;2.07;;
55312;SDS011;46892;45.668;11.756;2024-03-06T00:30:55;4.20;;;2.10;;
55312;SDS011;46892;45.668;11.756;2024-03-06T00:33:21;5.03;;;2.13;;
55312;SDS011;46892;45.668;11.756;2024-03-06T00:35:48;6.87;;;2.33;;
55312;SDS011;46892;45.668;11.756;2024-03-06T00:38:14;5.20;;;2.27;;
55312;SDS011;46892;45.668;11.756;2024-03-06T00:40:39;6.53;;;2.60;;
55312;SDS011;46892;45.668;11.756;2024-03-06T00:43:05;5.53;;;2.40;;
55312;SDS011;46892;45.668;11.756;2024-03-06T00:45:31;7.77;;;2.40;;
55312;SDS011;46892;45.668;11.756;2024-03-06T00:47:57;5.10;;;2.10;;
55312;SDS011;46892;45.668;11.756;2024-03-06T00:50:23;5.17;;;2.17;;
55312;SDS011;46892;45.668;11.756;2024-03-06T00:52:49;6.37;;;2.30;;
55312;SDS011;46892;45.668;11.756;2024-03-06T00:55:15;5.73;;;2.20;;
55312;SDS011;46892;45.668;11.756;2024-03-06T00:57:41;5.53;;;1.90;;
55312;SDS011;46892;45.668;11.756;2024-03-06T01:00:07;6.37;;;1.97;;
55312;SDS011;46892;45.668;11.756;2024-03-06T01:02:38;6.33;;;1.90;;
55312;SDS011;46892;45.668;11.756;2024-03-06T01:05:05;4.87;;;2.00;;
55312;SDS011;46892;45.668;11.756;2024-03-06T01:07:32;3.20;;;1.60;;
55312;SDS011;46892;45.668;11.756;2024-03-06T01:09:58;6.10;;;2.03;;
55312;SDS011;46892;45.668;11.756;2024-03-06T01:12:24;5.43;;;1.90;;
55312;SDS011;46892;45.668;11.756;2024-03-06T01:14:50;7.03;;;2.27;;
55312;SDS011;46892;45.668;11.756;2024-03-06T01:17:16;8.63;;;2.07;;
55312;SDS011;46892;45.668;11.756;2024-03-06T01:19:42;4.33;;;2.10;;
55312;SDS011;46892;45.668;11.756;2024-03-06T01:22:11;5.23;;;2.30;;
55312;SDS011;46892;45.668;11.756;2024-03-06T01:24:38;5.20;;;1.53;;
55312;SDS011;46892;45.668;11.756;2024-03-06T01:27:04;6.83;;;2.00;;
55312;SDS011;46892;45.668;11.756;2024-03-06T01:29:30;4.70;;;1.73;;
55312;SDS011;46892;45.668;11.756;2024-03-06T01:31:56;9.10;;;1.83;;
55312;SDS011;46892;45.668;11.756;2024-03-06T01:34:21;4.27;;;1.87;;
55312;SDS011;46892;45.668;11.756;2024-03-06T01:36:47;7.67;;;1.60;;
55312;SDS011;46892;45.668;11.756;2024-03-06T01:39:13;6.03;;;1.97;;
55312;SDS011;46892;45.668;11.756;2024-03-06T01:41:49;4.97;;;1.70;;
55312;SDS011;46892;45.668;11.756;2024-03-06T01:44:16;6.57;;;2.60;;
55312;SDS011;46892;45.668;11.756;2024-03-06T01:46:43;2.90;;;1.60;;
55312;SDS011;46892;45.668;11.756;2024-03-06T01:49:09;5.03;;;2.03;;
55312;SDS011;46892;45.668;11.756;2024-03-06T01:51:38;5.07;;;1.73;;
55312;SDS011;46892;45.668;11.756;2024-03-06T01:54:05;5.40;;;1.67;;
55312;SDS011;46892;45.668;11.756;2024-03-06T01:56:35;3.13;;;1.70;;
55312;SDS011;46892;45.668;11.756;2024-03-06T01:59:03;6.90;;;2.20;;
55312;SDS011;46892;45.668;11.756;2024-03-06T02:01:30;4.93;;;1.77;;
55312;SDS011;46892;45.668;11.756;2024-03-06T02:03:57;5.07;;;1.80;;
55312;SDS011;46892;45.668;11.756;2024-03-06T02:06:23;6.60;;;2.07;;
55312;SDS011;46892;45.668;11.756;2024-03-06T02:08:49;5.53;;;1.83;;
55312;SDS011;46892;45.668;11.756;2024-03-06T02:11:16;5.67;;;2.20;;
55312;SDS011;46892;45.668;11.756;2024-03-06T02:13:42;6.70;;;2.00;;
55312;SDS011;46892;45.668;11.756;2024-03-06T02:16:11;4.83;;;1.80;;
55312;SDS011;46892;45.668;11.756;2024-03-06T02:18:37;5.90;;;2.30;;
55312;SDS011;46892;45.668;11.756;2024-03-06T02:21:04;5.93;;;2.30;;
55312;SDS011;46892;45.668;11.756;2024-03-06T02:23:32;6.40;;;2.20;;
55312;SDS011;46892;45.668;11.756;2024-03-06T02:25:58;4.07;;;2.07;;
55312;SDS011;46892;45.668;11.756;2024-03-06T02:28:24;5.47;;;2.10;;
55312;SDS011;46892;45.668;11.756;2024-03-06T02:30:50;7.57;;;2.00;;
55312;SDS011;46892;45.668;11.756;2024-03-06T02:33:16;4.90;;;2.07;;
55312;SDS011;46892;45.668;11.756;2024-03-06T02:35:43;4.33;;;2.30;;
55312;SDS011;46892;45.668;11.756;2024-03-06T02:38:10;8.23;;;2.57;;
55312;SDS011;46892;45.668;11.756;2024-03-06T02:40:35;4.67;;;2.10;;
55312;SDS011;46892;45.668;11.756;2024-03-06T02:43:01;6.90;;;2.00;;
55312;SDS011;46892;45.668;11.756;2024-03-06T02:45:27;4.70;;;2.10;;
55312;SDS011;46892;45.668;11.756;2024-03-06T02:47:53;6.73;;;2.20;;
55312;SDS011;46892;45.668;11.756;2024-03-06T02:50:19;6.13;;;2.20;;
55312;SDS011;46892;45.668;11.756;2024-03-06T02:52:46;6.10;;;2.20;;
55312;SDS011;46892;45.668;11.756;2024-03-06T02:55:12;4.40;;;2.43;;
55312;SDS011;46892;45.668;11.756;2024-03-06T02:57:38;4.20;;;2.23;;
55312;SDS011;46892;45.668;11.756;2024-03-06T03:00:04;4.47;;;2.27;;
55312;SDS011;46892;45.668;11.756;2024-03-06T03:02:30;4.57;;;1.90;;
55312;SDS011;46892;45.668;11.756;2024-03-06T03:04:56;5.93;;;2.30;;
55312;SDS011;46892;45.668;11.756;2024-03-06T03:07:22;3.83;;;2.27;;
55312;SDS011;46892;45.668;11.756;2024-03-06T03:09:48;4.97;;;2.30;;
55312;SDS011;46892;45.668;11.756;2024-03-06T03:12:14;6.63;;;1.97;;
55312;SDS011;46892;45.668;11.756;2024-03-06T03:14:40;6.93;;;2.47;;
55312;SDS011;46892;45.668;11.756;2024-03-06T03:17:06;8.73;;;2.30;;
55312;SDS011;46892;45.668;11.756;2024-03-06T03:19:32;8.57;;;2.07;;
55312;SDS011;46892;45.668;11.756;2024-03-06T03:21:58;8.37;;;2.83;;
55312;SDS011;46892;45.668;11.756;2024-03-06T03:24:24;5.67;;;2.57;;
55312;SDS011;46892;45.668;11.756;2024-03-06T03:26:53;8.00;;;3.20;;
55312;SDS011;46892;45.668;11.756;2024-03-06T03:29:19;8.33;;;3.70;;
55312;SDS011;46892;45.668;11.756;2024-03-06T03:31:46;8.80;;;4.27;;
55312;SDS011;46892;45.668;11.756;2024-03-06T03:34:13;10.07;;;4.50;;
55312;SDS011;46892;45.668;11.756;2024-03-06T03:36:39;10.27;;;4.23;;
55312;SDS011;46892;45.668;11.756;2024-03-06T03:39:06;7.60;;;4.17;;
55312;SDS011;46892;45.668;11.756;2024-03-06T03:41:38;7.80;;;3.77;;
55312;SDS011;46892;45.668;11.756;2024-03-06T03:44:07;6.17;;;3.23;;
55312;SDS011;46892;45.668;11.756;2024-03-06T03:46:33;8.53;;;3.10;;
55312;SDS011;46892;45.668;11.756;2024-03-06T03:48:59;10.00;;;2.97;;
55312;SDS011;46892;45.668;11.756;2024-03-06T03:51:24;7.83;;;3.50;;
55312;SDS011;46892;45.668;11.756;2024-03-06T03:53:50;5.73;;;3.47;;
55312;SDS011;46892;45.668;11.756;2024-03-06T03:56:18;9.03;;;3.97;;
55312;SDS011;46892;45.668;11.756;2024-03-06T03:58:43;11.60;;;3.97;;
55312;SDS011;46892;45.668;11.756;2024-03-06T04:01:10;7.93;;;4.63;;
55312;SDS011;46892;45.668;11.756;2024-03-06T04:03:36;9.60;;;4.63;;
55312;SDS011;46892;45.668;11.756;2024-03-06T04:06:02;8.60;;;4.43;;
55312;SDS011;46892;45.668;11.756;2024-03-06T04:08:28;9.70;;;4.70;;
55312;SDS011;46892;45.668;11.756;2024-03-06T04:10:54;6.87;;;4.10;;
55312;SDS011;46892;45.668;11.756;2024-03-06T04:13:20;8.23;;;4.43;;
55312;SDS011;46892;45.668;11.756;2024-03-06T04:15:46;13.37;;;4.70;;
55312;SDS011;46892;45.668;11.756;2024-03-06T04:18:12;9.10;;;4.20;;
55312;SDS011;46892;45.668;11.756;2024-03-06T04:20:39;9.27;;;4.37;;
55312;SDS011;46892;45.668;11.756;2024-03-06T04:23:05;9.10;;;4.20;;
55312;SDS011;46892;45.668;11.756;2024-03-06T04:25:30;9.90;;;4.63;;
55312;SDS011;46892;45.668;11.756;2024-03-06T04:27:56;6.13;;;3.50;;
55312;SDS011;46892;45.668;11.756;2024-03-06T04:30:22;9.73;;;3.90;;
55312;SDS011;46892;45.668;11.756;2024-03-06T04:32:48;8.50;;;3.80;;
55312;SDS011;46892;45.668;11.756;2024-03-06T04:35:15;7.40;;;3.53;;
55312;SDS011;46892;45.668;11.756;2024-03-06T04:37:40;9.03;;;4.07;;
55312;SDS011;46892;45.668;11.756;2024-03-06T04:40:07;6.13;;;3.73;;
55312;SDS011;46892;45.668;11.756;2024-03-06T04:42:34;10.93;;;3.90;;
55312;SDS011;46892;45.668;11.756;2024-03-06T04:45:01;9.37;;;4.03;;
55312;SDS011;46892;45.668;11.756;2024-03-06T04:47:36;9.03;;;4.40;;
55312;SDS011;46892;45.668;11.756;2024-03-06T04:50:02;9.30;;;4.27;;
55312;SDS011;46892;45.668;11.756;2024-03-06T04:52:27;13.23;;;4.93;;
55312;SDS011;46892;45.668;11.756;2024-03-06T04:54:53;11.90;;;4.40;;
55312;SDS011;46892;45.668;11.756;2024-03-06T04:57:19;10.87;;;5.10;;
55312;SDS011;46892;45.668;11.756;2024-03-06T04:59:45;10.80;;;4.60;;
55312;SDS011;46892;45.668;11.756;2024-03-06T05:02:10;9.63;;;4.87;;
55312;SDS011;46892;45.668;11.756;2024-03-06T05:04:36;12.30;;;4.17;;
55312;SDS011;46892;45.668;11.756;2024-03-06T05:07:02;10.70;;;5.43;;
55312;SDS011;46892;45.668;11.756;2024-03-06T05:09:28;10.63;;;5.17;;
55312;SDS011;46892;45.668;11.756;2024-03-06T05:11:54;10.67;;;5.43;;
55312;SDS011;46892;45.668;11.756;2024-03-06T05:14:19;10.30;;;5.00;;
55312;SDS011;46892;45.668;11.756;2024-03-06T05:16:45;8.13;;;5.13;;
55312;SDS011;46892;45.668;11.756;2024-03-06T05:19:11;10.53;;;5.53;;
55312;SDS011;46892;45.668;11.756;2024-03-06T05:21:36;12.50;;;6.73;;
55312;SDS011;46892;45.668;11.756;2024-03-06T05:24:02;10.97;;;5.97;;
55312;SDS011;46892;45.668;11.756;2024-03-06T05:26:28;10.33;;;6.00;;
55312;SDS011;46892;45.668;11.756;2024-03-06T05:28:53;12.97;;;6.53;;
55312;SDS011;46892;45.668;11.756;2024-03-06T05:31:19;11.33;;;5.70;;
55312;SDS011;46892;45.668;11.756;2024-03-06T05:33:48;10.53;;;6.47;;
55312;SDS011;46892;45.668;11.756;2024-03-06T05:36:14;13.87;;;6.67;;
55312;SDS011;46892;45.668;11.756;2024-03-06T05:38:42;10.83;;;6.10;;
55312;SDS011;46892;45.668;11.756;2024-03-06T05:41:08;13.00;;;6.87;;
55312;SDS011;46892;45.668;11.756;2024-03-06T05:43:34;14.93;;;7.00;;
55312;SDS011;46892;45.668;11.756;2024-03-06T05:46:00;13.13;;;6.97;;
55312;SDS011;46892;45.668;11.756;2024-03-06T05:48:26;11.60;;;6.60;;
55312;SDS011;46892;45.668;11.756;2024-03-06T05:50:52;12.03;;;6.77;;
55312;SDS011;46892;45.668;11.756;2024-03-06T05:53:18;15.10;;;6.97;;
55312;SDS011;46892;45.668;11.756;2024-03-06T05:55:44;12.80;;;7.60;;
55312;SDS011;46892;45.668;11.756;2024-03-06T05:58:11;11.57;;;6.80;;
55312;SDS011;46892;45.668;11.756;2024-03-06T06:00:36;13.70;;;7.20;;
55312;SDS011;46892;45.668;11.756;2024-03-06T06:03:03;11.07;;;6.93;;
55312;SDS011;46892;45.668;11.756;2024-03-06T06:05:28;11.33;;;6.80;;
55312;SDS011;46892;45.668;11.756;2024-03-06T06:07:54;12.40;;;7.00;;
55312;SDS011;46892;45.668;11.756;2024-03-06T06:10:20;11.03;;;7.03;;
55312;SDS011;46892;45.668;11.756;2024-03-06T06:12:46;13.10;;;6.93;;
55312;SDS011;46892;45.668;11.756;2024-03-06T06:15:12;13.17;;;6.20;;
55312;SDS011;46892;45.668;11.756;2024-03-06T06:17:37;13.13;;;7.20;;
55312;SDS011;46892;45.668;11.756;2024-03-06T06:20:06;15.03;;;7.33;;
55312;SDS011;46892;45.668;11.756;2024-03-06T06:22:35;11.17;;;6.83;;
55312;SDS011;46892;45.668;11.756;2024-03-06T06:25:01;9.67;;;6.50;;
55312;SDS011;46892;45.668;11.756;2024-03-06T06:27:28;11.73;;;6.13;;
55312;SDS011;46892;45.668;11.756;2024-03-06T06:29:54;11.93;;;6.70;;
55312;SDS011;46892;45.668;11.756;2024-03-06T06:32:20;12.50;;;6.80;;
55312;SDS011;46892;45.668;11.756;2024-03-06T06:34:46;11.83;;;6.07;;
55312;SDS011;46892;45.668;11.756;2024-03-06T06:37:12;12.67;;;6.07;;
55312;SDS011;46892;45.668;11.756;2024-03-06T06:39:39;12.30;;;5.67;;
55312;SDS011;46892;45.668;11.756;2024-03-06T06:42:05;10.90;;;6.40;;
55312;SDS011;46892;45.668;11.756;2024-03-06T06:44:31;14.80;;;6.30;;
55312;SDS011;46892;45.668;11.756;2024-03-06T06:46:57;12.10;;;6.40;;
55312;SDS011;46892;45.668;11.756;2024-03-06T06:49:23;9.30;;;5.60;;
55312;SDS011;46892;45.668;11.756;2024-03-06T06:51:49;11.03;;;6.60;;
55312;SDS011;46892;45.668;11.756;2024-03-06T06:54:15;15.10;;;5.57;;
55312;SDS011;46892;45.668;11.756;2024-03-06T06:56:40;14.30;;;6.70;;
55312;SDS011;46892;45.668;11.756;2024-03-06T06:59:07;12.40;;;6.53;;
55312;SDS011;46892;45.668;11.756;2024-03-06T07:01:33;11.60;;;6.77;;
55312;SDS011;46892;45.668;11.756;2024-03-06T07:03:59;11.63;;;6.03;;
55312;SDS011;46892;45.668;11.756;2024-03-06T07:06:24;14.70;;;6.83;;
55312;SDS011;46892;45.668;11.756;2024-03-06T07:08:50;12.67;;;6.23;;
55312;SDS011;46892;45.668;11.756;2024-03-06T07:11:16;13.67;;;6.60;;
55312;SDS011;46892;45.668;11.756;2024-03-06T07:13:43;12.33;;;5.93;;
55312;SDS011;46892;45.668;11.756;2024-03-06T07:16:09;13.40;;;5.27;;
55312;SDS011;46892;45.668;11.756;2024-03-06T07:18:35;10.30;;;5.10;;
55312;SDS011;46892;45.668;11.756;2024-03-06T07:21:00;10.37;;;5.13;;
55312;SDS011;46892;45.668;11.756;2024-03-06T07:23:26;10.23;;;5.07;;
55312;SDS011;46892;45.668;11.756;2024-03-06T07:25:52;8.17;;;4.83;;
55312;SDS011;46892;45.668;11.756;2024-03-06T07:28:18;9.97;;;4.70;;
55312;SDS011;46892;45.668;11.756;2024-03-06T07:30:44;9.90;;;5.10;;
55312;SDS011;46892;45.668;11.756;2024-03-06T07:33:09;10.53;;;5.30;;
55312;SDS011;46892;45.668;11.756;2024-03-06T07:35:35;10.20;;;5.10;;
55312;SDS011;46892;45.668;11.756;2024-03-06T07:38:01;11.97;;;4.87;;
55312;SDS011;46892;45.668;11.756;2024-03-06T07:40:29;8.77;;;4.80;;
55312;SDS011;46892;45.668;11.756;2024-03-06T07:42:56;9.50;;;4.47;;
55312;SDS011;46892;45.668;11.756;2024-03-06T07:45:22;8.73;;;4.67;;
55312;SDS011;46892;45.668;11.756;2024-03-06T07:47:48;11.43;;;4.80;;
55312;SDS011;46892;45.668;11.756;2024-03-06T07:50:14;7.17;;;3.97;;
55312;SDS011;46892;45.668;11.756;2024-03-06T07:52:44;8.00;;;3.73;;
55312;SDS011;46892;45.668;11.756;2024-03-06T07:55:11;7.30;;;3.60;;
55312;SDS011;46892;45.668;11.756;2024-03-06T07:57:36;7.40;;;3.10;;
55312;SDS011;46892;45.668;11.756;2024-03-06T08:00:03;5.97;;;3.50;;
55312;SDS011;46892;45.668;11.756;2024-03-06T08:02:39;6.67;;;3.13;;
55312;SDS011;46892;45.668;11.756;2024-03-06T08:05:11;7.57;;;3.17;;
55312;SDS011;46892;45.668;11.756;2024-03-06T08:07:39;9.77;;;3.37;;
55312;SDS011;46892;45.668;11.756;2024-03-06T08:10:10;8.82;;;3.67;;
55312;SDS011;46892;45.668;11.756;2024-03-06T08:12:41;10.10;;;3.57;;
55312;SDS011;46892;45.668;11.756;2024-03-06T08:15:09;6.53;;;3.23;;
55312;SDS011;46892;45.668;11.756;2024-03-06T08:17:37;7.73;;;3.07;;
55312;SDS011;46892;45.668;11.756;2024-03-06T08:20:05;8.60;;;3.23;;
55312;SDS011;46892;45.668;11.756;2024-03-06T08:22:33;8.07;;;3.13;;
55312;SDS011;46892;45.668;11.756;2024-03-06T08:27:33;7.43;;;2.97;;
55312;SDS011;46892;45.668;11.756;2024-03-06T08:29:59;8.33;;;2.60;;
55312;SDS011;46892;45.668;11.756;2024-03-06T08:32:24;6.70;;;2.43;;
55312;SDS011;46892;45.668;11.756;2024-03-06T08:34:50;9.17;;;3.00;;
55312;SDS011;46892;45.668;11.756;2024-03-06T08:37:16;7.20;;;2.77;;
55312;SDS011;46892;45.668;11.756;2024-03-06T08:39:41;5.47;;;2.63;;
55312;SDS011;46892;45.668;11.756;2024-03-06T08:42:08;5.23;;;2.37;;
55312;SDS011;46892;45.668;11.756;2024-03-06T08:44:34;7.43;;;2.63;;
55312;SDS011;46892;45.668;11.756;2024-03-06T08:46:59;6.53;;;2.40;;
55312;SDS011;46892;45.668;11.756;2024-03-06T08:49:25;5.83;;;2.27;;
55312;SDS011;46892;45.668;11.756;2024-03-06T08:51:51;6.47;;;2.47;;
55312;SDS011;46892;45.668;11.756;2024-03-06T08:54:17;6.73;;;2.30;;
55312;SDS011;46892;45.668;11.756;2024-03-06T08:56:43;7.23;;;2.50;;
55312;SDS011;46892;45.668;11.756;2024-03-06T08:59:09;3.73;;;2.53;;
55312;SDS011;46892;45.668;11.756;2024-03-06T09:01:35;8.80;;;2.30;;
55312;SDS011;46892;45.668;11.756;2024-03-06T09:04:00;6.63;;;2.70;;
55312;SDS011;46892;45.668;11.756;2024-03-06T09:06:26;9.50;;;2.47;;
55312;SDS011;46892;45.668;11.756;2024-03-06T09:08:52;5.40;;;2.77;;
55312;SDS011;46892;45.668;11.756;2024-03-06T09:11:18;6.90;;;2.70;;
55312;SDS011;46892;45.668;11.756;2024-03-06T09:13:43;7.10;;;3.00;;
55312;SDS011;46892;45.668;11.756;2024-03-06T09:16:09;5.47;;;2.80;;
55312;SDS011;46892;45.668;11.756;2024-03-06T09:18:35;7.33;;;2.90;;
55312;SDS011;46892;45.668;11.756;2024-03-06T09:21:01;6.17;;;2.77;;
55312;SDS011;46892;45.668;11.756;2024-03-06T09:23:27;7.53;;;3.40;;
55312;SDS011;46892;45.668;11.756;2024-03-06T09:25:55;5.97;;;2.60;;
55312;SDS011;46892;45.668;11.756;2024-03-06T09:28:20;7.73;;;3.00;;
55312;SDS011;46892;45.668;11.756;2024-03-06T09:30:47;5.43;;;2.67;;
55312;SDS011;46892;45.668;11.756;2024-03-06T09:33:13;6.27;;;2.87;;
55312;SDS011;46892;45.668;11.756;2024-03-06T09:35:39;7.30;;;3.00;;
55312;SDS011;46892;45.668;11.756;2024-03-06T09:38:10;7.87;;;2.97;;
55312;SDS011;46892;45.668;11.756;2024-03-06T09:40:38;7.37;;;2.90;;
55312;SDS011;46892;45.668;11.756;2024-03-06T09:43:06;8.23;;;3.03;;
55312;SDS011;46892;45.668;11.756;2024-03-06T09:45:32;6.30;;;2.93;;
55312;SDS011;46892;45.668;11.756;2024-03-06T09:47:58;7.17;;;2.47;;
55312;SDS011;46892;45.668;11.756;2024-03-06T09:50:24;6.57;;;3.17;;
55312;SDS011;46892;45.668;11.756;2024-03-06T09:52:55;9.50;;;3.33;;
55312;SDS011;46892;45.668;11.756;2024-03-06T09:55:21;7.10;;;3.63;;
55312;SDS011;46892;45.668;11.756;2024-03-06T09:57:47;8.70;;;3.77;;
55312;SDS011;46892;45.668;11.756;2024-03-06T10:00:15;10.40;;;3.33;;
55312;SDS011;46892;45.668;11.756;2024-03-06T10:02:46;7.23;;;3.60;;
55312;SDS011;46892;45.668;11.756;2024-03-06T10:05:26;6.97;;;3.70;;
55312;SDS011;46892;45.668;11.756;2024-03-06T10:07:53;10.60;;;4.73;;
55312;SDS011;46892;45.668;11.756;2024-03-06T10:10:19;9.03;;;4.20;;
55312;SDS011;46892;45.668;11.756;2024-03-06T10:12:48;9.00;;;4.60;;
55312;SDS011;46892;45.668;11.756;2024-03-06T10:15:14;8.43;;;4.07;;
55312;SDS011;46892;45.668;11.756;2024-03-06T10:17:40;8.97;;;5.00;;
55312;SDS011;46892;45.668;11.756;2024-03-06T10:20:19;9.93;;;4.67;;
55312;SDS011;46892;45.668;11.756;2024-03-06T10:22:47;7.20;;;5.03;;
55312;SDS011;46892;45.668;11.756;2024-03-06T10:25:20;8.17;;;5.07;;
55312;SDS011;46892;45.668;11.756;2024-03-06T10:27:47;9.55;;;5.03;;
55312;SDS011;46892;45.668;11.756;2024-03-06T10:30:30;11.27;;;4.90;;
55312;SDS011;46892;45.668;11.756;2024-03-06T10:32:56;9.33;;;4.47;;
55312;SDS011;46892;45.668;11.756;2024-03-06T10:35:23;8.53;;;4.50;;
55312;SDS011;46892;45.668;11.756;2024-03-06T10:37:50;10.43;;;4.80;;
55312;SDS011;46892;45.668;11.756;2024-03-06T10:40:19;8.70;;;4.43;;
55312;SDS011;46892;45.668;11.756;2024-03-06T10:42:47;8.63;;;3.80;;
55312;SDS011;46892;45.668;11.756;2024-03-06T10:45:14;8.27;;;3.80;;
55312;SDS011;46892;45.668;11.756;2024-03-06T10:47:46;10.27;;;3.83;;
55312;SDS011;46892;45.668;11.756;2024-03-06T10:50:14;8.10;;;3.70;;
55312;SDS011;46892;45.668;11.756;2024-03-06T10:52:40;8.40;;;3.87;;
55312;SDS011;46892;45.668;11.756;2024-03-06T10:55:07;6.33;;;2.97;;
55312;SDS011;46892;45.668;11.756;2024-03-06T10:57:35;8.87;;;3.43;;
55312;SDS011;46892;45.668;11.756;2024-03-06T11:00:02;7.47;;;3.67;;
55312;SDS011;46892;45.668;11.756;2024-03-06T11:02:29;8.40;;;3.20;;
55312;SDS011;46892;45.668;11.756;2024-03-06T11:04:55;6.57;;;3.23;;
55312;SDS011;46892;45.668;11.756;2024-03-06T11:07:20;8.97;;;3.40;;
55312;SDS011;46892;45.668;11.756;2024-03-06T11:09:46;6.10;;;3.60;;
55312;SDS011;46892;45.668;11.756;2024-03-06T13:03:49;7.87;;;4.17;;
55312;SDS011;46892;45.668;11.756;2024-03-06T13:06:15;10.00;;;4.90;;
55312;SDS011;46892;45.668;11.756;2024-03-06T13:08:43;11.80;;;4.30;;
55312;SDS011;46892;45.668;11.756;2024-03-06T13:11:09;8.03;;;4.90;;
55312;SDS011;46892;45.668;11.756;2024-03-06T13:13:34;7.67;;;4.27;;
55312;SDS011;46892;45.668;11.756;2024-03-06T13:16:01;7.13;;;3.90;;
55312;SDS011;46892;45.668;11.756;2024-03-06T13:18:27;8.33;;;4.53;;
55312;SDS011;46892;45.668;11.756;2024-03-06T13:20:53;7.87;;;4.03;;
55312;SDS011;46892;45.668;11.756;2024-03-06T13:23:19;5.13;;;3.37;;
55312;SDS011;46892;45.668;11.756;2024-03-06T13:25:45;6.43;;;3.10;;
55312;SDS011;46892;45.668;11.756;2024-03-06T13:28:11;4.83;;;3.10;;
55312;SDS011;46892;45.668;11.756;2024-03-06T13:30:37;6.20;;;3.17;;
55312;SDS011;46892;45.668;11.756;2024-03-06T13:33:04;5.83;;;3.23;;
55312;SDS011;46892;45.668;11.756;2024-03-06T13:35:30;8.40;;;3.43;;
55312;SDS011;46892;45.668;11.756;2024-03-06T13:37:56;5.17;;;3.07;;
55312;SDS011;46892;45.668;11.756;2024-03-06T13:40:22;6.37;;;3.30;;
55312;SDS011;46892;45.668;11.756;2024-03-06T13:42:48;6.43;;;3.47;;
55312;SDS011;46892;45.668;11.756;2024-03-06T13:45:13;4.80;;;2.90;;
55312;SDS011;46892;45.668;11.756;2024-03-06T13:47:42;6.60;;;3.30;;
55312;SDS011;46892;45.668;11.756;2024-03-06T13:50:12;7.67;;;3.30;;
55312;SDS011;46892;45.668;11.756;2024-03-06T13:52:40;5.63;;;3.00;;
55312;SDS011;46892;45.668;11.756;2024-03-06T13:55:06;6.50;;;3.63;;
55312;SDS011;46892;45.668;11.756;2024-03-06T13:57:33;7.33;;;4.67;;
55312;SDS011;46892;45.668;11.756;2024-03-06T14:00:09;7.07;;;3.10;;
55312;SDS011;46892;45.668;11.756;2024-03-06T14:02:47;5.33;;;3.53;;
55312;SDS011;46892;45.668;11.756;2024-03-06T14:05:13;6.83;;;3.30;;
55312;SDS011;46892;45.668;11.756;2024-03-06T14:07:39;7.60;;;3.20;;
55312;SDS011;46892;45.668;11.756;2024-03-06T14:10:06;4.70;;;3.17;;
55312;SDS011;46892;45.668;11.756;2024-03-06T14:12:33;6.13;;;3.20;;
55312;SDS011;46892;45.668;11.756;2024-03-06T14:15:00;5.70;;;3.27;;
55312;SDS011;46892;45.668;11.756;2024-03-06T14:17:26;5.37;;;3.20;;
55312;SDS011;46892;45.668;11.756;2024-03-06T14:19:52;5.67;;;3.20;;
55312;SDS011;46892;45.668;11.756;2024-03-06T14:22:18;6.23;;;3.00;;
55312;SDS011;46892;45.668;11.756;2024-03-06T14:24:43;4.50;;;2.90;;
55312;SDS011;46892;45.668;11.756;2024-03-06T14:27:10;5.13;;;3.40;;
55312;SDS011;46892;45.668;11.756;2024-03-06T14:29:36;3.70;;;2.40;;
55312;SDS011;46892;45.668;11.756;2024-03-06T14:32:02;5.57;;;2.53;;
55312;SDS011;46892;45.668;11.756;2024-03-06T14:34:28;4.27;;;2.63;;
55312;SDS011;46892;45.668;11.756;2024-03-06T14:36:54;5.27;;;2.90;;
55312;SDS011;46892;45.668;11.756;2024-03-06T14:39:19;4.07;;;2.50;;
55312;SDS011;46892;45.668;11.756;2024-03-06T14:41:50;3.37;;;2.30;;
55312;SDS011;46892;45.668;11.756;2024-03-06T14:44:16;5.60;;;2.50;;
55312;SDS011;46892;45.668;11.756;2024-03-06T14:46:42;4.53;;;2.60;;
55312;SDS011;46892;45.668;11.756;2024-03-06T14:49:08;4.73;;;2.30;;
55312;SDS011;46892;45.668;11.756;2024-03-06T14:51:35;3.90;;;2.20;;
55312;SDS011;46892;45.668;11.756;2024-03-06T14:54:01;4.00;;;2.10;;
55312;SDS011;46892;45.668;11.756;2024-03-06T14:56:28;4.63;;;2.00;;
55312;SDS011;46892;45.668;11.756;2024-03-06T14:58:55;3.97;;;2.37;;
55312;SDS011;46892;45.668;11.756;2024-03-06T15:01:22;3.93;;;2.40;;
55312;SDS011;46892;45.668;11.756;2024-03-06T15:03:49;5.10;;;2.30;;
55312;SDS011;46892;45.668;11.756;2024-03-06T15:06:15;5.53;;;2.40;;
55312;SDS011;46892;45.668;11.756;2024-03-06T15:08:41;4.27;;;2.20;;
55312;SDS011;46892;45.668;11.756;2024-03-06T15:11:09;4.83;;;2.40;;
55312;SDS011;46892;45.668;11.756;2024-03-06T15:13:36;6.90;;;2.50;;
55312;SDS011;46892;45.668;11.756;2024-03-06T15:16:04;4.87;;;2.23;;
55312;SDS011;46892;45.668;11.756;2024-03-06T15:18:30;4.20;;;2.27;;
55312;SDS011;46892;45.668;11.756;2024-03-06T15:20:57;4.83;;;2.03;;
55312;SDS011;46892;45.668;11.756;2024-03-06T15:23:24;6.50;;;2.30;;
55312;SDS011;46892;45.668;11.756;2024-03-06T15:25:52;2.40;;;1.67;;
55312;SDS011;46892;45.668;11.756;2024-03-06T15:28:20;4.83;;;1.60;;
55312;SDS011;46892;45.668;11.756;2024-03-06T15:30:47;3.63;;;1.80;;
55312;SDS011;46892;45.668;11.756;2024-03-06T15:33:13;3.30;;;1.77;;
55312;SDS011;46892;45.668;11.756;2024-03-06T15:35:39;4.03;;;1.97;;
55312;SDS011;46892;45.668;11.756;2024-03-06T15:38:05;4.90;;;1.50;;
55312;SDS011;46892;45.668;11.756;2024-03-06T15:40:31;4.80;;;2.00;;
55312;SDS011;46892;45.668;11.756;2024-03-06T15:42:57;5.30;;;2.20;;
55312;SDS011;46892;45.668;11.756;2024-03-06T15:45:22;4.13;;;1.93;;
55312;SDS011;46892;45.668;11.756;2024-03-06T15:47:48;2.93;;;1.77;;
55312;SDS011;46892;45.668;11.756;2024-03-06T15:50:14;4.63;;;1.80;;
55312;SDS011;46892;45.668;11.756;2024-03-06T15:52:41;3.77;;;1.80;;
55312;SDS011;46892;45.668;11.756;2024-03-06T15:55:07;2.97;;;1.40;;
55312;SDS011;46892;45.668;11.756;2024-03-06T15:57:36;1.87;;;0.90;;
55312;SDS011;46892;45.668;11.756;2024-03-06T16:00:03;3.33;;;1.10;;
55312;SDS011;46892;45.668;11.756;2024-03-06T16:02:31;2.70;;;1.50;;
55312;SDS011;46892;45.668;11.756;2024-03-06T16:04:57;2.53;;;1.10;;
55312;SDS011;46892;45.668;11.756;2024-03-06T16:07:23;2.00;;;1.10;;
55312;SDS011;46892;45.668;11.756;2024-03-06T16:09:51;2.17;;;1.10;;
55312;SDS011;46892;45.668;11.756;2024-03-06T16:12:17;3.67;;;1.20;;
55312;SDS011;46892;45.668;11.756;2024-03-06T16:14:43;1.83;;;1.30;;
55312;SDS011;46892;45.668;11.756;2024-03-06T16:17:09;2.83;;;1.83;;
55312;SDS011;46892;45.668;11.756;2024-03-06T16:19:35;3.93;;;2.63;;
55312;SDS011;46892;45.668;11.756;2024-03-06T16:22:01;2.87;;;1.50;;